sensor_id;sensor_type;location;lat;lon;timestamp;P1;durP1;ratioP1;P2;durP2;ratioP2
41881;SDS011;27562;47.524;12.404;2023-08-20T00:02:10;5.53;;;3.10;;
41881;SDS011;27562;47.524;12.404;2023-08-20T00:04:36;7.25;;;3.63;;
41881;SDS011;27562;47.524;12.404;2023-08-20T00:07:02;6.97;;;4.18;;
41881;SDS011;27562;47.524;12.404;2023-08-20T00:09:28;8.15;;;3.63;;
41881;SDS011;27562;47.524;12.404;2023-08-20T00:11:55;5.93;;;3.53;;
41881;SDS011;27562;47.524;12.404;2023-08-20T00:14:21;5.75;;;3.33;;
41881;SDS011;27562;47.524;12.404;2023-08-20T00:17:23;5.07;;;3.38;;
41881;SDS011;27562;47.524;12.404;2023-08-20T00:19:52;6.72;;;3.40;;
41881;SDS011;27562;47.524;12.404;2023-08-20T00:22:21;6.70;;;3.20;;
41881;SDS011;27562;47.524;12.404;2023-08-20T00:24:48;5.15;;;3.50;;
41881;SDS011;27562;47.524;12.404;2023-08-20T00:27:14;4.38;;;3.28;;
41881;SDS011;27562;47.524;12.404;2023-08-20T00:29:40;5.90;;;3.45;;
41881;SDS011;27562;47.524;12.404;2023-08-20T00:32:05;5.05;;;3.35;;
41881;SDS011;27562;47.524;12.404;2023-08-20T00:34:31;5.68;;;3.20;;
41881;SDS011;27562;47.524;12.404;2023-08-20T00:36:57;5.75;;;3.60;;
41881;SDS011;27562;47.524;12.404;2023-08-20T00:39:22;9.13;;;4.00;;
41881;SDS011;27562;47.524;12.404;2023-08-20T00:41:48;6.03;;;4.15;;
41881;SDS011;27562;47.524;12.404;2023-08-20T00:44:14;9.15;;;4.45;;
41881;SDS011;27562;47.524;12.404;2023-08-20T00:46:39;5.72;;;3.33;;
41881;SDS011;27562;47.524;12.404;2023-08-20T00:49:05;9.48;;;3.78;;
41881;SDS011;27562;47.524;12.404;2023-08-20T00:51:32;7.45;;;3.60;;
41881;SDS011;27562;47.524;12.404;2023-08-20T00:53:59;7.05;;;4.32;;
41881;SDS011;27562;47.524;12.404;2023-08-20T00:56:26;6.03;;;3.50;;
41881;SDS011;27562;47.524;12.404;2023-08-20T00:58:52;6.22;;;3.63;;
41881;SDS011;27562;47.524;12.404;2023-08-20T01:01:19;6.15;;;3.60;;
41881;SDS011;27562;47.524;12.404;2023-08-20T01:03:45;6.18;;;3.70;;
41881;SDS011;27562;47.524;12.404;2023-08-20T01:06:22;5.15;;;3.30;;
41881;SDS011;27562;47.524;12.404;2023-08-20T01:09:17;5.38;;;3.90;;
41881;SDS011;27562;47.524;12.404;2023-08-20T01:12:05;7.50;;;4.53;;
41881;SDS011;27562;47.524;12.404;2023-08-20T01:14:31;6.50;;;4.25;;
41881;SDS011;27562;47.524;12.404;2023-08-20T01:16:57;8.00;;;4.45;;
41881;SDS011;27562;47.524;12.404;2023-08-20T01:19:23;6.57;;;4.18;;
41881;SDS011;27562;47.524;12.404;2023-08-20T01:21:56;10.90;;;3.80;;
41881;SDS011;27562;47.524;12.404;2023-08-20T01:30:13;8.02;;;4.43;;
41881;SDS011;27562;47.524;12.404;2023-08-20T01:32:40;7.78;;;4.07;;
41881;SDS011;27562;47.524;12.404;2023-08-20T01:35:08;7.15;;;4.03;;
41881;SDS011;27562;47.524;12.404;2023-08-20T01:37:38;8.50;;;4.00;;
41881;SDS011;27562;47.524;12.404;2023-08-20T01:40:04;6.97;;;3.60;;
41881;SDS011;27562;47.524;12.404;2023-08-20T01:42:35;7.30;;;4.15;;
41881;SDS011;27562;47.524;12.404;2023-08-20T01:45:02;7.15;;;4.40;;
41881;SDS011;27562;47.524;12.404;2023-08-20T01:47:28;6.15;;;3.80;;
41881;SDS011;27562;47.524;12.404;2023-08-20T01:49:54;5.40;;;3.53;;
41881;SDS011;27562;47.524;12.404;2023-08-20T01:52:19;6.90;;;4.00;;
41881;SDS011;27562;47.524;12.404;2023-08-20T01:54:45;6.15;;;3.88;;
41881;SDS011;27562;47.524;12.404;2023-08-20T01:57:11;8.32;;;4.10;;
41881;SDS011;27562;47.524;12.404;2023-08-20T01:59:36;5.90;;;3.70;;
41881;SDS011;27562;47.524;12.404;2023-08-20T02:02:02;5.85;;;3.90;;
41881;SDS011;27562;47.524;12.404;2023-08-20T02:04:29;6.85;;;4.00;;
41881;SDS011;27562;47.524;12.404;2023-08-20T02:06:56;8.05;;;4.90;;
41881;SDS011;27562;47.524;12.404;2023-08-20T02:09:21;10.57;;;5.97;;
41881;SDS011;27562;47.524;12.404;2023-08-20T02:11:47;9.18;;;6.40;;
41881;SDS011;27562;47.524;12.404;2023-08-20T02:14:13;8.63;;;5.28;;
41881;SDS011;27562;47.524;12.404;2023-08-20T02:16:38;12.23;;;8.40;;
41881;SDS011;27562;47.524;12.404;2023-08-20T02:19:04;20.15;;;11.68;;
41881;SDS011;27562;47.524;12.404;2023-08-20T02:21:31;14.30;;;9.85;;
41881;SDS011;27562;47.524;12.404;2023-08-20T02:23:57;14.55;;;9.63;;
41881;SDS011;27562;47.524;12.404;2023-08-20T02:26:23;13.73;;;8.80;;
41881;SDS011;27562;47.524;12.404;2023-08-20T02:28:48;10.80;;;7.00;;
41881;SDS011;27562;47.524;12.404;2023-08-20T02:31:14;9.07;;;6.38;;
41881;SDS011;27562;47.524;12.404;2023-08-20T02:33:40;8.38;;;5.25;;
41881;SDS011;27562;47.524;12.404;2023-08-20T02:36:06;8.52;;;4.55;;
41881;SDS011;27562;47.524;12.404;2023-08-20T02:38:32;8.45;;;3.90;;
41881;SDS011;27562;47.524;12.404;2023-08-20T02:40:57;7.47;;;4.40;;
41881;SDS011;27562;47.524;12.404;2023-08-20T02:43:23;6.55;;;3.80;;
41881;SDS011;27562;47.524;12.404;2023-08-20T02:45:49;7.35;;;3.92;;
41881;SDS011;27562;47.524;12.404;2023-08-20T02:48:15;7.13;;;3.63;;
41881;SDS011;27562;47.524;12.404;2023-08-20T02:50:40;7.47;;;3.83;;
41881;SDS011;27562;47.524;12.404;2023-08-20T02:53:06;6.30;;;4.03;;
41881;SDS011;27562;47.524;12.404;2023-08-20T02:55:32;6.32;;;3.67;;
41881;SDS011;27562;47.524;12.404;2023-08-20T02:57:58;7.63;;;4.20;;
41881;SDS011;27562;47.524;12.404;2023-08-20T03:00:24;5.95;;;3.80;;
41881;SDS011;27562;47.524;12.404;2023-08-20T03:02:50;5.75;;;3.78;;
41881;SDS011;27562;47.524;12.404;2023-08-20T03:05:16;6.95;;;4.03;;
41881;SDS011;27562;47.524;12.404;2023-08-20T03:07:41;7.97;;;3.80;;
41881;SDS011;27562;47.524;12.404;2023-08-20T03:10:07;7.38;;;3.97;;
41881;SDS011;27562;47.524;12.404;2023-08-20T03:12:33;6.65;;;4.22;;
41881;SDS011;27562;47.524;12.404;2023-08-20T03:14:59;5.95;;;3.88;;
41881;SDS011;27562;47.524;12.404;2023-08-20T03:17:25;5.53;;;3.83;;
41881;SDS011;27562;47.524;12.404;2023-08-20T03:19:55;6.20;;;3.83;;
41881;SDS011;27562;47.524;12.404;2023-08-20T03:24:48;8.13;;;3.72;;
41881;SDS011;27562;47.524;12.404;2023-08-20T03:27:14;5.53;;;3.90;;
41881;SDS011;27562;47.524;12.404;2023-08-20T03:29:39;6.78;;;3.95;;
41881;SDS011;27562;47.524;12.404;2023-08-20T03:32:05;6.97;;;3.88;;
41881;SDS011;27562;47.524;12.404;2023-08-20T03:34:30;5.75;;;3.90;;
41881;SDS011;27562;47.524;12.404;2023-08-20T03:36:56;5.70;;;4.05;;
41881;SDS011;27562;47.524;12.404;2023-08-20T03:39:22;8.32;;;4.00;;
41881;SDS011;27562;47.524;12.404;2023-08-20T03:41:47;8.93;;;4.20;;
41881;SDS011;27562;47.524;12.404;2023-08-20T03:44:14;5.57;;;3.90;;
41881;SDS011;27562;47.524;12.404;2023-08-20T03:46:40;6.95;;;3.90;;
41881;SDS011;27562;47.524;12.404;2023-08-20T03:49:05;5.93;;;4.13;;
41881;SDS011;27562;47.524;12.404;2023-08-20T03:51:31;7.55;;;3.97;;
41881;SDS011;27562;47.524;12.404;2023-08-20T03:53:57;8.43;;;4.28;;
41881;SDS011;27562;47.524;12.404;2023-08-20T03:56:22;7.45;;;4.68;;
41881;SDS011;27562;47.524;12.404;2023-08-20T03:58:48;8.02;;;4.15;;
41881;SDS011;27562;47.524;12.404;2023-08-20T04:01:13;9.15;;;4.72;;
41881;SDS011;27562;47.524;12.404;2023-08-20T04:03:39;7.40;;;4.95;;
41881;SDS011;27562;47.524;12.404;2023-08-20T04:06:05;6.75;;;4.35;;
41881;SDS011;27562;47.524;12.404;2023-08-20T04:08:31;7.82;;;4.43;;
41881;SDS011;27562;47.524;12.404;2023-08-20T04:10:57;7.03;;;4.13;;
41881;SDS011;27562;47.524;12.404;2023-08-20T04:13:23;6.93;;;4.53;;
41881;SDS011;27562;47.524;12.404;2023-08-20T04:15:48;4.82;;;3.55;;
41881;SDS011;27562;47.524;12.404;2023-08-20T04:18:14;5.65;;;4.10;;
41881;SDS011;27562;47.524;12.404;2023-08-20T04:20:40;6.50;;;3.65;;
41881;SDS011;27562;47.524;12.404;2023-08-20T04:23:05;7.63;;;4.10;;
41881;SDS011;27562;47.524;12.404;2023-08-20T04:25:31;6.68;;;4.45;;
41881;SDS011;27562;47.524;12.404;2023-08-20T04:27:57;5.55;;;4.00;;
41881;SDS011;27562;47.524;12.404;2023-08-20T04:30:22;6.40;;;4.00;;
41881;SDS011;27562;47.524;12.404;2023-08-20T04:32:48;8.73;;;4.18;;
41881;SDS011;27562;47.524;12.404;2023-08-20T04:35:14;8.05;;;4.07;;
41881;SDS011;27562;47.524;12.404;2023-08-20T04:37:39;7.38;;;4.40;;
41881;SDS011;27562;47.524;12.404;2023-08-20T04:40:05;7.75;;;4.70;;
41881;SDS011;27562;47.524;12.404;2023-08-20T04:42:33;7.50;;;4.88;;
41881;SDS011;27562;47.524;12.404;2023-08-20T04:44:58;6.00;;;4.18;;
41881;SDS011;27562;47.524;12.404;2023-08-20T04:47:24;7.63;;;4.65;;
41881;SDS011;27562;47.524;12.404;2023-08-20T04:49:50;6.28;;;4.20;;
41881;SDS011;27562;47.524;12.404;2023-08-20T04:52:16;6.90;;;4.10;;
41881;SDS011;27562;47.524;12.404;2023-08-20T04:54:41;6.70;;;4.43;;
41881;SDS011;27562;47.524;12.404;2023-08-20T04:57:07;11.35;;;4.32;;
41881;SDS011;27562;47.524;12.404;2023-08-20T04:59:33;6.13;;;4.10;;
41881;SDS011;27562;47.524;12.404;2023-08-20T05:01:58;5.82;;;4.03;;
41881;SDS011;27562;47.524;12.404;2023-08-20T05:04:24;6.53;;;4.32;;
41881;SDS011;27562;47.524;12.404;2023-08-20T05:06:49;6.85;;;4.63;;
41881;SDS011;27562;47.524;12.404;2023-08-20T05:09:15;5.95;;;3.80;;
41881;SDS011;27562;47.524;12.404;2023-08-20T05:11:41;7.63;;;4.30;;
41881;SDS011;27562;47.524;12.404;2023-08-20T05:14:07;6.63;;;3.83;;
41881;SDS011;27562;47.524;12.404;2023-08-20T05:16:33;8.63;;;5.18;;
41881;SDS011;27562;47.524;12.404;2023-08-20T05:18:58;6.90;;;4.35;;
41881;SDS011;27562;47.524;12.404;2023-08-20T05:21:24;8.85;;;5.28;;
41881;SDS011;27562;47.524;12.404;2023-08-20T05:23:50;9.75;;;4.72;;
41881;SDS011;27562;47.524;12.404;2023-08-20T05:26:15;5.95;;;4.50;;
41881;SDS011;27562;47.524;12.404;2023-08-20T05:28:41;9.13;;;4.90;;
41881;SDS011;27562;47.524;12.404;2023-08-20T05:31:06;6.72;;;4.32;;
41881;SDS011;27562;47.524;12.404;2023-08-20T05:33:32;7.40;;;4.60;;
41881;SDS011;27562;47.524;12.404;2023-08-20T05:35:59;7.65;;;4.95;;
41881;SDS011;27562;47.524;12.404;2023-08-20T05:38:24;6.50;;;4.72;;
41881;SDS011;27562;47.524;12.404;2023-08-20T05:40:50;7.47;;;4.63;;
41881;SDS011;27562;47.524;12.404;2023-08-20T05:43:18;7.95;;;5.05;;
41881;SDS011;27562;47.524;12.404;2023-08-20T05:45:44;9.88;;;4.68;;
41881;SDS011;27562;47.524;12.404;2023-08-20T05:48:10;8.27;;;5.10;;
41881;SDS011;27562;47.524;12.404;2023-08-20T05:50:35;8.77;;;5.32;;
41881;SDS011;27562;47.524;12.404;2023-08-20T05:53:01;7.82;;;5.18;;
41881;SDS011;27562;47.524;12.404;2023-08-20T05:55:26;9.38;;;5.63;;
41881;SDS011;27562;47.524;12.404;2023-08-20T05:57:52;8.57;;;5.22;;
41881;SDS011;27562;47.524;12.404;2023-08-20T06:00:18;13.07;;;5.47;;
41881;SDS011;27562;47.524;12.404;2023-08-20T06:02:43;7.95;;;4.88;;
41881;SDS011;27562;47.524;12.404;2023-08-20T06:05:09;11.40;;;5.43;;
41881;SDS011;27562;47.524;12.404;2023-08-20T06:07:35;8.57;;;5.22;;
41881;SDS011;27562;47.524;12.404;2023-08-20T06:10:01;9.15;;;4.90;;
41881;SDS011;27562;47.524;12.404;2023-08-20T06:12:27;8.93;;;5.13;;
41881;SDS011;27562;47.524;12.404;2023-08-20T06:14:53;7.57;;;5.10;;
41881;SDS011;27562;47.524;12.404;2023-08-20T06:17:19;8.50;;;5.45;;
41881;SDS011;27562;47.524;12.404;2023-08-20T06:19:44;6.90;;;5.18;;
41881;SDS011;27562;47.524;12.404;2023-08-20T06:22:10;9.40;;;6.43;;
41881;SDS011;27562;47.524;12.404;2023-08-20T06:24:36;12.23;;;5.80;;
41881;SDS011;27562;47.524;12.404;2023-08-20T06:27:02;10.63;;;6.38;;
41881;SDS011;27562;47.524;12.404;2023-08-20T06:29:28;9.07;;;6.25;;
41881;SDS011;27562;47.524;12.404;2023-08-20T06:31:54;12.35;;;7.55;;
41881;SDS011;27562;47.524;12.404;2023-08-20T06:34:19;10.82;;;7.43;;
41881;SDS011;27562;47.524;12.404;2023-08-20T06:36:45;11.15;;;7.50;;
41881;SDS011;27562;47.524;12.404;2023-08-20T06:39:10;12.45;;;7.97;;
41881;SDS011;27562;47.524;12.404;2023-08-20T06:41:36;13.30;;;8.85;;
41881;SDS011;27562;47.524;12.404;2023-08-20T06:44:02;10.98;;;8.00;;
41881;SDS011;27562;47.524;12.404;2023-08-20T06:46:28;12.88;;;8.68;;
41881;SDS011;27562;47.524;12.404;2023-08-20T06:48:54;12.27;;;8.15;;
41881;SDS011;27562;47.524;12.404;2023-08-20T06:51:20;13.07;;;7.68;;
41881;SDS011;27562;47.524;12.404;2023-08-20T06:53:47;12.65;;;7.80;;
41881;SDS011;27562;47.524;12.404;2023-08-20T06:56:13;12.73;;;7.32;;
41881;SDS011;27562;47.524;12.404;2023-08-20T06:58:39;12.57;;;7.47;;
41881;SDS011;27562;47.524;12.404;2023-08-20T07:01:06;10.77;;;7.50;;
41881;SDS011;27562;47.524;12.404;2023-08-20T07:03:42;12.25;;;8.02;;
41881;SDS011;27562;47.524;12.404;2023-08-20T07:06:09;13.60;;;8.52;;
41881;SDS011;27562;47.524;12.404;2023-08-20T07:08:36;19.02;;;7.80;;
41881;SDS011;27562;47.524;12.404;2023-08-20T07:11:04;15.48;;;8.48;;
41881;SDS011;27562;47.524;12.404;2023-08-20T07:13:29;16.50;;;8.93;;
41881;SDS011;27562;47.524;12.404;2023-08-20T07:15:55;11.82;;;7.97;;
41881;SDS011;27562;47.524;12.404;2023-08-20T07:18:21;10.23;;;6.95;;
41881;SDS011;27562;47.524;12.404;2023-08-20T07:20:47;10.05;;;6.22;;
41881;SDS011;27562;47.524;12.404;2023-08-20T07:23:12;13.98;;;7.53;;
41881;SDS011;27562;47.524;12.404;2023-08-20T07:25:38;17.40;;;8.13;;
41881;SDS011;27562;47.524;12.404;2023-08-20T07:28:05;13.98;;;8.95;;
41881;SDS011;27562;47.524;12.404;2023-08-20T07:30:32;15.65;;;8.15;;
41881;SDS011;27562;47.524;12.404;2023-08-20T07:32:58;11.43;;;7.63;;
41881;SDS011;27562;47.524;12.404;2023-08-20T07:35:23;10.23;;;7.80;;
41881;SDS011;27562;47.524;12.404;2023-08-20T07:37:49;11.15;;;7.22;;
41881;SDS011;27562;47.524;12.404;2023-08-20T07:40:15;12.65;;;8.00;;
41881;SDS011;27562;47.524;12.404;2023-08-20T07:42:41;13.95;;;8.65;;
41881;SDS011;27562;47.524;12.404;2023-08-20T07:45:07;12.15;;;7.82;;
41881;SDS011;27562;47.524;12.404;2023-08-20T07:47:34;16.15;;;8.43;;
41881;SDS011;27562;47.524;12.404;2023-08-20T07:50:05;9.02;;;7.13;;
41881;SDS011;27562;47.524;12.404;2023-08-20T07:52:31;16.60;;;9.77;;
41881;SDS011;27562;47.524;12.404;2023-08-20T07:54:57;11.98;;;7.95;;
41881;SDS011;27562;47.524;12.404;2023-08-20T07:57:23;11.95;;;8.15;;
41881;SDS011;27562;47.524;12.404;2023-08-20T07:59:50;9.45;;;7.43;;
41881;SDS011;27562;47.524;12.404;2023-08-20T08:02:16;13.57;;;7.82;;
41881;SDS011;27562;47.524;12.404;2023-08-20T08:04:42;10.70;;;6.47;;
41881;SDS011;27562;47.524;12.404;2023-08-20T08:07:08;7.88;;;6.10;;
41881;SDS011;27562;47.524;12.404;2023-08-20T08:09:37;11.65;;;6.78;;
41881;SDS011;27562;47.524;12.404;2023-08-20T08:12:03;11.52;;;6.85;;
41881;SDS011;27562;47.524;12.404;2023-08-20T08:14:29;8.23;;;6.10;;
41881;SDS011;27562;47.524;12.404;2023-08-20T08:16:55;10.15;;;5.80;;
41881;SDS011;27562;47.524;12.404;2023-08-20T08:19:20;7.55;;;5.63;;
41881;SDS011;27562;47.524;12.404;2023-08-20T08:21:46;9.45;;;6.00;;
41881;SDS011;27562;47.524;12.404;2023-08-20T08:24:13;9.77;;;6.03;;
41881;SDS011;27562;47.524;12.404;2023-08-20T08:26:39;9.48;;;5.75;;
41881;SDS011;27562;47.524;12.404;2023-08-20T08:29:06;8.63;;;6.03;;
41881;SDS011;27562;47.524;12.404;2023-08-20T08:31:32;8.35;;;5.43;;
41881;SDS011;27562;47.524;12.404;2023-08-20T08:33:58;9.43;;;6.15;;
41881;SDS011;27562;47.524;12.404;2023-08-20T08:36:24;8.55;;;5.90;;
41881;SDS011;27562;47.524;12.404;2023-08-20T08:38:50;12.55;;;5.95;;
41881;SDS011;27562;47.524;12.404;2023-08-20T08:41:17;7.93;;;5.78;;
41881;SDS011;27562;47.524;12.404;2023-08-20T08:43:46;9.70;;;5.63;;
41881;SDS011;27562;47.524;12.404;2023-08-20T08:46:13;10.20;;;5.22;;
41881;SDS011;27562;47.524;12.404;2023-08-20T08:48:40;7.32;;;5.40;;
41881;SDS011;27562;47.524;12.404;2023-08-20T08:51:07;11.57;;;5.97;;
41881;SDS011;27562;47.524;12.404;2023-08-20T08:53:33;8.05;;;5.38;;
41881;SDS011;27562;47.524;12.404;2023-08-20T08:56:00;8.82;;;5.30;;
41881;SDS011;27562;47.524;12.404;2023-08-20T08:58:26;8.75;;;5.05;;
41881;SDS011;27562;47.524;12.404;2023-08-20T09:00:52;7.47;;;4.50;;
41881;SDS011;27562;47.524;12.404;2023-08-20T09:03:18;8.52;;;4.70;;
41881;SDS011;27562;47.524;12.404;2023-08-20T09:05:47;8.88;;;4.82;;
41881;SDS011;27562;47.524;12.404;2023-08-20T09:10:53;8.50;;;4.28;;
41881;SDS011;27562;47.524;12.404;2023-08-20T09:13:22;9.18;;;4.43;;
41881;SDS011;27562;47.524;12.404;2023-08-20T09:15:57;7.88;;;4.18;;
41881;SDS011;27562;47.524;12.404;2023-08-20T09:18:23;7.70;;;4.00;;
41881;SDS011;27562;47.524;12.404;2023-08-20T09:20:49;9.40;;;4.20;;
41881;SDS011;27562;47.524;12.404;2023-08-20T09:23:15;10.65;;;4.65;;
41881;SDS011;27562;47.524;12.404;2023-08-20T09:25:42;8.05;;;4.20;;
41881;SDS011;27562;47.524;12.404;2023-08-20T09:28:08;10.43;;;4.50;;
41881;SDS011;27562;47.524;12.404;2023-08-20T09:30:34;8.80;;;3.97;;
41881;SDS011;27562;47.524;12.404;2023-08-20T09:33:03;8.68;;;4.00;;
41881;SDS011;27562;47.524;12.404;2023-08-20T09:35:29;9.07;;;4.57;;
41881;SDS011;27562;47.524;12.404;2023-08-20T09:37:58;9.75;;;4.53;;
41881;SDS011;27562;47.524;12.404;2023-08-20T09:40:25;7.00;;;4.25;;
41881;SDS011;27562;47.524;12.404;2023-08-20T09:42:51;8.50;;;4.38;;
41881;SDS011;27562;47.524;12.404;2023-08-20T09:45:22;6.17;;;4.20;;
41881;SDS011;27562;47.524;12.404;2023-08-20T09:47:50;7.53;;;4.10;;
41881;SDS011;27562;47.524;12.404;2023-08-20T09:50:20;10.45;;;4.35;;
41881;SDS011;27562;47.524;12.404;2023-08-20T09:53:34;10.35;;;3.50;;
41881;SDS011;27562;47.524;12.404;2023-08-20T09:55:47;8.75;;;3.60;;
41881;SDS011;27562;47.524;12.404;2023-08-20T09:58:16;6.43;;;4.18;;
41881;SDS011;27562;47.524;12.404;2023-08-20T10:00:46;7.35;;;4.03;;
41881;SDS011;27562;47.524;12.404;2023-08-20T10:03:15;6.53;;;4.03;;
41881;SDS011;27562;47.524;12.404;2023-08-20T10:05:41;10.18;;;4.55;;
41881;SDS011;27562;47.524;12.404;2023-08-20T10:08:07;7.60;;;4.10;;
41881;SDS011;27562;47.524;12.404;2023-08-20T10:10:33;6.47;;;4.30;;
41881;SDS011;27562;47.524;12.404;2023-08-20T10:12:59;6.53;;;3.78;;
41881;SDS011;27562;47.524;12.404;2023-08-20T10:15:25;10.30;;;4.13;;
41881;SDS011;27562;47.524;12.404;2023-08-20T10:17:53;8.13;;;4.28;;
41881;SDS011;27562;47.524;12.404;2023-08-20T10:20:19;6.88;;;3.90;;
41881;SDS011;27562;47.524;12.404;2023-08-20T10:22:45;8.15;;;4.03;;
41881;SDS011;27562;47.524;12.404;2023-08-20T10:25:22;8.32;;;3.72;;
41881;SDS011;27562;47.524;12.404;2023-08-20T12:12:00;5.00;;;3.37;;
41881;SDS011;27562;47.524;12.404;2023-08-20T21:49:44;5.80;;;4.50;;
41881;SDS011;27562;47.524;12.404;2023-08-20T21:52:09;5.25;;;4.25;;
41881;SDS011;27562;47.524;12.404;2023-08-20T21:54:35;6.18;;;3.88;;
41881;SDS011;27562;47.524;12.404;2023-08-20T21:57:06;5.40;;;4.25;;
41881;SDS011;27562;47.524;12.404;2023-08-20T21:59:35;5.13;;;3.85;;
41881;SDS011;27562;47.524;12.404;2023-08-20T22:02:01;4.68;;;3.65;;
41881;SDS011;27562;47.524;12.404;2023-08-20T22:04:30;4.85;;;3.85;;
41881;SDS011;27562;47.524;12.404;2023-08-20T22:06:56;5.80;;;4.18;;
41881;SDS011;27562;47.524;12.404;2023-08-20T22:09:22;6.18;;;4.07;;
41881;SDS011;27562;47.524;12.404;2023-08-20T22:11:49;5.38;;;4.00;;
41881;SDS011;27562;47.524;12.404;2023-08-20T22:14:15;4.93;;;3.92;;
41881;SDS011;27562;47.524;12.404;2023-08-20T22:16:40;5.47;;;4.15;;
41881;SDS011;27562;47.524;12.404;2023-08-20T22:19:06;6.47;;;4.13;;
41881;SDS011;27562;47.524;12.404;2023-08-20T22:21:32;6.60;;;3.70;;
41881;SDS011;27562;47.524;12.404;2023-08-20T22:23:57;6.03;;;4.82;;
41881;SDS011;27562;47.524;12.404;2023-08-20T22:26:23;9.75;;;4.55;;
41881;SDS011;27562;47.524;12.404;2023-08-20T22:28:50;6.15;;;4.15;;
41881;SDS011;27562;47.524;12.404;2023-08-20T22:31:16;6.53;;;4.55;;
41881;SDS011;27562;47.524;12.404;2023-08-20T22:33:41;4.90;;;4.40;;
41881;SDS011;27562;47.524;12.404;2023-08-20T22:36:07;5.32;;;4.00;;
41881;SDS011;27562;47.524;12.404;2023-08-20T22:38:33;7.22;;;4.38;;
41881;SDS011;27562;47.524;12.404;2023-08-20T22:40:58;6.40;;;4.13;;
41881;SDS011;27562;47.524;12.404;2023-08-20T22:43:25;6.68;;;4.57;;
41881;SDS011;27562;47.524;12.404;2023-08-20T22:45:50;7.07;;;4.72;;
41881;SDS011;27562;47.524;12.404;2023-08-20T22:48:17;5.78;;;4.25;;
41881;SDS011;27562;47.524;12.404;2023-08-20T22:50:43;7.25;;;4.45;;
41881;SDS011;27562;47.524;12.404;2023-08-20T22:53:08;5.68;;;4.60;;
41881;SDS011;27562;47.524;12.404;2023-08-20T22:55:34;6.07;;;4.35;;
41881;SDS011;27562;47.524;12.404;2023-08-20T22:58:00;7.53;;;4.60;;
41881;SDS011;27562;47.524;12.404;2023-08-20T23:00:27;5.28;;;4.50;;
41881;SDS011;27562;47.524;12.404;2023-08-20T23:02:53;6.95;;;4.68;;
41881;SDS011;27562;47.524;12.404;2023-08-20T23:05:19;7.97;;;5.10;;
41881;SDS011;27562;47.524;12.404;2023-08-20T23:07:44;5.38;;;4.45;;
41881;SDS011;27562;47.524;12.404;2023-08-20T23:10:10;6.95;;;4.45;;
41881;SDS011;27562;47.524;12.404;2023-08-20T23:12:36;6.15;;;4.70;;
41881;SDS011;27562;47.524;12.404;2023-08-20T23:15:02;8.32;;;4.40;;
41881;SDS011;27562;47.524;12.404;2023-08-20T23:17:29;7.00;;;4.20;;
41881;SDS011;27562;47.524;12.404;2023-08-20T23:19:55;7.25;;;4.65;;
41881;SDS011;27562;47.524;12.404;2023-08-20T23:22:23;7.22;;;4.53;;
41881;SDS011;27562;47.524;12.404;2023-08-20T23:24:49;5.57;;;4.25;;
41881;SDS011;27562;47.524;12.404;2023-08-20T23:27:14;6.38;;;4.85;;
41881;SDS011;27562;47.524;12.404;2023-08-20T23:29:40;6.50;;;4.63;;
41881;SDS011;27562;47.524;12.404;2023-08-20T23:32:06;5.43;;;4.43;;
41881;SDS011;27562;47.524;12.404;2023-08-20T23:34:32;7.38;;;4.78;;
41881;SDS011;27562;47.524;12.404;2023-08-20T23:37:00;6.90;;;4.68;;
41881;SDS011;27562;47.524;12.404;2023-08-20T23:39:25;5.93;;;4.82;;
41881;SDS011;27562;47.524;12.404;2023-08-20T23:41:51;6.65;;;4.93;;
41881;SDS011;27562;47.524;12.404;2023-08-20T23:44:17;6.20;;;4.18;;
41881;SDS011;27562;47.524;12.404;2023-08-20T23:46:43;9.57;;;5.10;;
41881;SDS011;27562;47.524;12.404;2023-08-20T23:49:09;8.07;;;4.28;;
41881;SDS011;27562;47.524;12.404;2023-08-20T23:51:35;5.20;;;4.38;;
41881;SDS011;27562;47.524;12.404;2023-08-20T23:54:01;5.85;;;4.20;;
41881;SDS011;27562;47.524;12.404;2023-08-20T23:56:27;5.05;;;4.30;;
41881;SDS011;27562;47.524;12.404;2023-08-20T23:58:54;6.45;;;4.20;;
